Time;durP1;ratioP1;P1;durP2;ratioP2;P2;SDS_P1;SDS_P2;PMS_P1;PMS_P2;Temp;Humidity;BMP_temperature;BMP_pressure;BME280_temperature;BME280_humidity;BME280_pressure;Samples;Min_cycle;Max_cycle;Signal;HPM_P1;HPM_P2
2023/08/02 00:00:35;;;;;;;4.22;1.75;;;15.70;99.90;;;;;;4900158;29;20043;-80
2023/08/02 00:03:01;;;;;;;5.40;1.83;;;15.70;99.90;;;;;;4917551;29;20048;-80
2023/08/02 00:05:26;;;;;;;9.15;2.10;;;15.60;99.90;;;;;;4900056;29;20048;-80
2023/08/02 00:07:52;;;;;;;8.05;2.17;;;15.70;99.90;;;;;;4917132;29;20079;-80
2023/08/02 00:10:17;;;;;;;9.35;2.30;;;15.70;99.90;;;;;;4900192;29;20044;-80
2023/08/02 00:12:43;;;;;;;12.05;2.55;;;15.60;99.90;;;;;;4919803;29;20044;-80
2023/08/02 00:15:09;;;;;;;9.32;2.15;;;15.60;99.90;;;;;;4900433;29;20040;-80
2023/08/02 00:17:34;;;;;;;8.38;2.35;;;15.60;99.90;;;;;;4887300;29;20044;-80
2023/08/02 00:20:00;;;;;;;6.82;1.85;;;15.60;99.90;;;;;;4900528;29;20112;-80
2023/08/02 00:22:25;;;;;;;10.00;2.25;;;15.60;99.90;;;;;;4899926;29;20080;-80
2023/08/02 00:24:51;;;;;;;3.72;1.85;;;15.60;99.90;;;;;;4901548;29;20068;-80
2023/08/02 00:27:16;;;;;;;10.10;2.92;;;15.60;99.90;;;;;;4900471;29;20134;-80
2023/08/02 00:29:42;;;;;;;6.85;2.58;;;15.60;99.90;;;;;;4898280;29;20059;-80
2023/08/02 00:32:07;;;;;;;7.20;1.92;;;15.60;99.90;;;;;;4898667;29;20051;-80
2023/08/02 00:34:33;;;;;;;7.00;2.17;;;15.70;99.90;;;;;;4899612;29;20071;-80
2023/08/02 00:36:58;;;;;;;4.43;2.00;;;15.60;99.90;;;;;;4897071;29;20071;-80
2023/08/02 00:39:24;;;;;;;5.88;2.38;;;15.70;99.90;;;;;;4898343;29;20095;-80
2023/08/02 00:41:49;;;;;;;6.80;2.55;;;15.60;99.90;;;;;;4902515;29;20050;-80
2023/08/02 00:44:15;;;;;;;6.70;2.33;;;15.60;99.90;;;;;;4902238;29;20043;-80
2023/08/02 00:46:41;;;;;;;7.80;2.60;;;15.60;99.90;;;;;;4900558;29;20041;-80
2023/08/02 00:49:09;;;;;;;12.38;2.45;;;15.60;99.90;;;;;;4917251;29;20048;-80
2023/08/02 00:51:35;;;;;;;10.60;2.80;;;15.60;99.90;;;;;;4903367;29;20036;-80
2023/08/02 00:54:02;;;;;;;8.00;2.40;;;15.60;99.90;;;;;;4918383;29;20044;-79
2023/08/02 00:56:31;;;;;;;8.65;2.45;;;15.60;99.90;;;;;;4898178;29;20040;-80
2023/08/02 00:58:57;;;;;;;11.98;2.28;;;15.70;99.90;;;;;;4913314;29;20048;-79
2023/08/02 01:01:23;;;;;;;7.40;2.25;;;15.60;99.90;;;;;;4886775;29;20052;-80
2023/08/02 01:03:48;;;;;;;6.75;2.45;;;15.60;99.90;;;;;;4901612;29;20038;-82
2023/08/02 01:06:34;;;;;;;9.00;2.55;;;15.60;99.90;;;;;;4903000;29;20045;-80
2023/08/02 01:09:13;;;;;;;10.25;2.78;;;15.60;99.90;;;;;;4908158;29;20159;-79
2023/08/02 01:12:13;;;;;;;6.18;2.63;;;15.60;99.90;;;;;;4883856;29;20040;-80
2023/08/02 01:14:47;;;;;;;5.22;2.55;;;15.60;99.90;;;;;;4914560;29;20131;-80
2023/08/02 01:17:13;;;;;;;7.95;2.55;;;15.50;99.90;;;;;;4880287;29;20108;-80
2023/08/02 01:19:39;;;;;;;10.00;2.28;;;15.50;99.90;;;;;;4911344;29;20072;-80
2023/08/02 01:22:05;;;;;;;6.55;3.40;;;15.50;99.90;;;;;;4912802;29;20447;-80
2023/08/02 01:24:33;;;;;;;10.48;3.17;;;15.50;99.90;;;;;;4899024;29;20035;-79
2023/08/02 01:27:30;;;;;;;11.38;2.20;;;15.50;99.90;;;;;;4894807;29;20032;-80
2023/08/02 01:29:59;;;;;;;13.65;3.25;;;15.60;99.90;;;;;;4912082;29;20055;-80
2023/08/02 01:32:25;;;;;;;9.32;2.60;;;15.50;99.90;;;;;;4888900;29;20047;-80
2023/08/02 01:34:51;;;;;;;6.32;2.70;;;15.60;99.90;;;;;;4913037;29;20400;-79
2023/08/02 01:37:16;;;;;;;11.57;2.65;;;15.60;99.90;;;;;;4916311;29;20344;-79
2023/08/02 01:39:42;;;;;;;4.28;1.98;;;15.80;99.90;;;;;;4895721;29;20060;-80
2023/08/02 01:42:10;;;;;;;7.15;2.55;;;15.50;99.90;;;;;;4901570;29;20555;-80
2023/08/02 01:44:36;;;;;;;8.25;2.47;;;15.60;99.90;;;;;;4916329;29;20068;-80
2023/08/02 01:47:01;;;;;;;6.20;2.85;;;16.10;99.90;;;;;;4896446;29;20935;-79
2023/08/02 01:49:27;;;;;;;8.40;3.00;;;15.50;99.90;;;;;;4912411;29;20074;-80
2023/08/02 01:51:52;;;;;;;9.35;2.58;;;15.50;99.90;;;;;;4916192;29;20099;-80
2023/08/02 01:54:18;;;;;;;10.05;2.80;;;15.70;99.90;;;;;;4914277;29;20060;-80
2023/08/02 01:56:43;;;;;;;10.38;3.17;;;15.70;99.90;;;;;;4901788;29;20119;-79
2023/08/02 01:59:11;;;;;;;11.25;3.63;;;15.40;99.90;;;;;;4915672;29;20044;-79
2023/08/02 02:01:38;;;;;;;15.60;3.30;;;15.50;99.90;;;;;;4903961;29;20144;-80
2023/08/02 02:04:03;;;;;;;12.95;2.90;;;15.40;99.90;;;;;;4895348;29;20173;-80
2023/08/02 02:06:29;;;;;;;9.88;2.83;;;15.40;99.90;;;;;;4893073;29;20093;-80
2023/08/02 02:08:55;;;;;;;11.27;3.13;;;15.40;99.90;;;;;;4911399;29;20052;-79
2023/08/02 02:11:21;;;;;;;9.73;2.85;;;15.40;99.90;;;;;;4916141;29;20061;-81
2023/08/02 02:13:46;;;;;;;16.67;3.47;;;15.40;99.90;;;;;;4917703;29;20083;-81
2023/08/02 02:16:12;;;;;;;13.77;3.33;;;15.40;99.90;;;;;;4909166;29;20048;-80
2023/08/02 02:18:37;;;;;;;15.25;3.13;;;15.40;99.90;;;;;;4909283;29;20515;-79
2023/08/02 02:21:03;;;;;;;14.45;2.88;;;15.30;99.90;;;;;;4914724;29;20063;-80
2023/08/02 02:23:29;;;;;;;8.45;2.75;;;15.50;99.90;;;;;;4915260;29;20039;-80
2023/08/02 02:25:54;;;;;;;12.50;3.38;;;15.40;99.90;;;;;;4917231;29;20036;-80
2023/08/02 02:28:20;;;;;;;14.05;3.20;;;15.40;99.90;;;;;;4915378;29;20051;-80
2023/08/02 02:30:46;;;;;;;14.82;3.58;;;15.40;99.90;;;;;;4923007;29;20075;-80
2023/08/02 02:33:11;;;;;;;9.90;3.03;;;15.40;99.90;;;;;;4916550;29;20040;-80
2023/08/02 02:35:37;;;;;;;17.10;3.47;;;15.40;99.90;;;;;;4915855;29;20040;-80
2023/08/02 02:38:02;;;;;;;15.63;3.75;;;15.40;99.90;;;;;;4921447;29;20095;-79
2023/08/02 02:40:28;;;;;;;15.05;4.40;;;15.70;99.90;;;;;;4919616;29;20551;-80
2023/08/02 02:42:53;;;;;;;14.65;4.38;;;15.40;99.90;;;;;;4905666;29;20088;-81
2023/08/02 02:45:19;;;;;;;13.48;4.05;;;15.40;99.90;;;;;;4905373;29;20032;-80
2023/08/02 02:47:45;;;;;;;16.05;4.65;;;15.40;99.90;;;;;;4922091;29;20365;-80
2023/08/02 02:50:10;;;;;;;18.20;4.72;;;15.30;99.90;;;;;;4889831;29;20381;-79
2023/08/02 02:52:36;;;;;;;17.75;4.43;;;15.40;99.90;;;;;;4920025;29;20054;-79
2023/08/02 02:55:01;;;;;;;11.57;3.95;;;15.40;99.90;;;;;;4914256;29;20047;-80
2023/08/02 02:57:27;;;;;;;17.42;5.20;;;15.40;99.90;;;;;;4920757;29;20040;-80
2023/08/02 02:59:52;;;;;;;19.13;5.68;;;15.40;99.90;;;;;;4901463;29;20115;-81
2023/08/02 03:02:18;;;;;;;20.15;6.72;;;15.60;99.90;;;;;;4903662;29;20044;-79
2023/08/02 03:04:44;;;;;;;15.30;4.75;;;15.50;99.90;;;;;;4916659;29;21621;-80
2023/08/02 03:07:09;;;;;;;22.70;6.53;;;15.40;99.90;;;;;;4920473;29;20033;-80
2023/08/02 03:09:35;;;;;;;18.70;5.45;;;15.40;99.90;;;;;;4901849;29;20104;-81
2023/08/02 03:12:00;;;;;;;16.85;4.90;;;15.40;99.90;;;;;;4913512;29;20109;-80
2023/08/02 03:14:27;;;;;;;19.17;5.13;;;15.40;99.90;;;;;;4905305;29;20043;-80
2023/08/02 03:16:53;;;;;;;13.68;5.07;;;15.40;99.90;;;;;;4915450;29;20083;-80
2023/08/02 03:19:18;;;;;;;16.63;5.50;;;15.30;99.90;;;;;;4912065;29;20613;-80
2023/08/02 03:21:44;;;;;;;13.25;4.20;;;15.30;99.90;;;;;;4920748;29;20099;-80
2023/08/02 03:24:09;;;;;;;15.38;4.68;;;15.50;99.90;;;;;;4921855;29;20044;-81
2023/08/02 03:26:35;;;;;;;17.80;4.97;;;15.30;99.90;;;;;;4915750;29;20047;-80
2023/08/02 03:29:01;;;;;;;12.43;4.43;;;15.30;99.90;;;;;;4916802;29;20510;-80
2023/08/02 03:31:26;;;;;;;17.55;4.25;;;15.30;99.90;;;;;;4896250;29;20381;-80
2023/08/02 03:33:52;;;;;;;19.40;4.60;;;15.30;99.90;;;;;;4917452;29;20037;-80
2023/08/02 03:36:18;;;;;;;18.77;5.75;;;15.30;99.90;;;;;;4905691;29;20068;-81
2023/08/02 03:38:43;;;;;;;14.98;4.30;;;15.30;99.90;;;;;;4900127;29;20511;-80
2023/08/02 03:41:09;;;;;;;20.08;6.00;;;15.30;99.90;;;;;;4913660;29;20035;-80
2023/08/02 03:43:35;;;;;;;18.67;5.80;;;15.30;99.90;;;;;;4913730;29;20044;-80
2023/08/02 03:46:01;;;;;;;13.60;4.55;;;15.20;99.90;;;;;;4911355;29;20032;-80
2023/08/02 03:48:28;;;;;;;17.98;4.75;;;15.20;99.90;;;;;;4902290;29;20072;-80
2023/08/02 03:50:56;;;;;;;16.00;5.03;;;15.20;99.90;;;;;;4898692;29;20046;-80
2023/08/02 03:53:21;;;;;;;16.30;5.07;;;15.10;99.90;;;;;;4916841;29;20036;-80
2023/08/02 03:55:47;;;;;;;17.50;5.13;;;15.20;99.90;;;;;;4901188;29;20501;-80
2023/08/02 03:58:13;;;;;;;16.67;5.68;;;15.10;99.90;;;;;;4922750;29;20028;-80
2023/08/02 04:00:38;;;;;;;12.45;4.80;;;15.00;99.90;;;;;;4898474;29;20041;-79
2023/08/02 04:03:04;;;;;;;11.13;5.60;;;15.10;99.90;;;;;;4889183;29;20411;-80
2023/08/02 04:05:29;;;;;;;12.52;3.90;;;15.00;99.90;;;;;;4897565;29;20040;-80
2023/08/02 04:07:55;;;;;;;17.02;6.10;;;15.00;99.90;;;;;;4897329;29;20070;-80
2023/08/02 04:10:21;;;;;;;12.60;4.72;;;14.90;99.90;;;;;;4911997;29;20048;-80
2023/08/02 04:12:46;;;;;;;14.45;5.43;;;14.90;99.90;;;;;;4898365;29;20126;-80
2023/08/02 04:15:12;;;;;;;15.30;5.78;;;14.90;99.90;;;;;;4909679;29;20051;-80
2023/08/02 04:17:37;;;;;;;10.85;5.03;;;14.80;99.90;;;;;;4911650;29;20570;-80
2023/08/02 04:20:03;;;;;;;10.65;5.20;;;14.80;99.90;;;;;;4898682;29;20043;-80
2023/08/02 04:22:34;;;;;;;10.60;4.85;;;14.80;99.90;;;;;;4887008;29;20044;-79
2023/08/02 04:25:00;;;;;;;12.50;4.60;;;14.80;99.90;;;;;;4898103;29;20649;-80
2023/08/02 04:27:26;;;;;;;14.35;5.90;;;14.80;99.90;;;;;;4890812;29;20037;-79
2023/08/02 04:29:51;;;;;;;10.18;5.00;;;14.70;99.90;;;;;;4905441;29;20036;-80
2023/08/02 04:32:17;;;;;;;13.77;5.47;;;14.80;99.90;;;;;;4890440;29;20032;-80
2023/08/02 04:34:42;;;;;;;13.82;5.25;;;14.70;99.90;;;;;;4893418;29;20505;-80
2023/08/02 04:37:08;;;;;;;17.67;5.60;;;15.00;99.90;;;;;;4889488;29;20043;-80
2023/08/02 04:39:35;;;;;;;18.27;5.80;;;14.80;99.90;;;;;;4899163;29;20067;-81
2023/08/02 04:42:02;;;;;;;9.18;5.25;;;14.70;99.90;;;;;;4915835;29;20443;-81
2023/08/02 04:44:30;;;;;;;17.52;5.45;;;14.70;99.90;;;;;;4883889;29;20049;-81
2023/08/02 04:46:56;;;;;;;14.10;5.22;;;14.70;99.90;;;;;;4901514;29;20151;-81
2023/08/02 04:49:31;;;;;;;13.52;5.32;;;14.70;99.90;;;;;;4898410;29;20207;-80
2023/08/02 04:51:58;;;;;;;11.65;5.28;;;14.70;99.90;;;;;;4879475;29;20686;-80
2023/08/02 04:54:24;;;;;;;12.55;5.28;;;14.70;99.90;;;;;;4896143;29;20103;-81
2023/08/02 04:56:50;;;;;;;8.88;4.63;;;14.70;99.90;;;;;;4913969;29;20040;-80
2023/08/02 04:59:15;;;;;;;12.65;5.22;;;14.70;99.90;;;;;;4905163;29;20044;-80
2023/08/02 05:01:41;;;;;;;11.38;4.57;;;14.80;99.90;;;;;;4909059;29;20036;-80
2023/08/02 05:04:08;;;;;;;12.90;5.38;;;14.70;99.90;;;;;;4919168;29;20067;-80
2023/08/02 05:06:34;;;;;;;12.07;5.65;;;14.90;99.90;;;;;;4914895;29;20052;-80
2023/08/02 05:09:04;;;;;;;13.60;5.85;;;14.80;99.90;;;;;;4899484;29;20068;-80
2023/08/02 05:11:29;;;;;;;11.50;6.57;;;14.70;99.90;;;;;;4896018;29;20509;-81
2023/08/02 05:13:55;;;;;;;12.48;5.38;;;14.80;99.90;;;;;;4922884;29;20067;-80
2023/08/02 05:16:20;;;;;;;14.70;5.75;;;14.80;99.90;;;;;;4904837;29;20075;-80
2023/08/02 05:18:46;;;;;;;11.52;5.88;;;14.80;99.90;;;;;;4914846;29;20511;-80
2023/08/02 05:21:16;;;;;;;9.93;5.30;;;14.90;99.90;;;;;;4924969;29;20573;-80
2023/08/02 05:24:45;;;;;;;11.77;5.00;;;14.90;99.90;;;;;;4902987;29;20055;-80
2023/08/02 05:27:13;;;;;;;10.05;4.70;;;15.00;99.90;;;;;;4887823;29;20042;-79
2023/08/02 05:29:47;;;;;;;12.73;5.72;;;15.00;99.90;;;;;;4879142;29;20091;-81
2023/08/02 05:32:13;;;;;;;13.15;5.32;;;15.00;99.90;;;;;;4909601;29;20197;-81
2023/08/02 05:34:39;;;;;;;16.13;6.13;;;15.00;99.90;;;;;;4904515;29;20040;-80
2023/08/02 05:37:09;;;;;;;12.88;5.95;;;15.10;99.90;;;;;;4893960;29;20044;-80
2023/08/02 05:39:35;;;;;;;11.45;5.78;;;15.20;99.90;;;;;;4874808;29;20044;-81
2023/08/02 05:42:00;;;;;;;9.98;4.95;;;15.20;99.90;;;;;;4901252;29;20095;-80
2023/08/02 05:44:26;;;;;;;11.77;4.93;;;15.30;99.90;;;;;;4897694;29;20062;-81
2023/08/02 05:46:51;;;;;;;9.05;4.57;;;15.30;99.90;;;;;;4902178;29;20051;-80
2023/08/02 05:49:17;;;;;;;16.42;5.85;;;15.30;99.90;;;;;;4913618;29;20076;-80
2023/08/02 05:51:43;;;;;;;10.57;4.30;;;15.40;99.90;;;;;;4918885;29;20046;-80
2023/08/02 05:54:08;;;;;;;12.40;4.88;;;15.50;99.90;;;;;;4891425;29;20040;-80
2023/08/02 05:56:34;;;;;;;7.00;4.30;;;15.70;99.90;;;;;;4885623;29;20519;-80
2023/08/02 05:59:01;;;;;;;8.63;4.43;;;16.50;99.90;;;;;;4915258;29;20112;-81
2023/08/02 06:01:26;;;;;;;12.10;4.65;;;16.40;99.90;;;;;;4913347;29;20083;-80
2023/08/02 06:03:52;;;;;;;9.27;4.18;;;16.90;99.90;;;;;;4896942;29;20104;-80
2023/08/02 06:06:17;;;;;;;9.05;3.83;;;16.60;99.90;;;;;;4910067;29;20045;-80
2023/08/02 06:08:45;;;;;;;9.93;3.83;;;16.60;99.90;;;;;;4903038;29;20047;-80
2023/08/02 06:11:12;;;;;;;12.55;3.83;;;16.80;99.90;;;;;;4899985;29;20049;-80
2023/08/02 06:13:38;;;;;;;7.75;3.58;;;16.90;99.90;;;;;;4886277;29;20073;-81
2023/08/02 06:16:04;;;;;;;5.47;3.65;;;16.40;99.90;;;;;;4903582;29;20040;-80
2023/08/02 06:18:29;;;;;;;12.80;4.45;;;16.30;99.90;;;;;;4913426;29;20037;-82
2023/08/02 06:20:55;;;;;;;9.80;4.50;;;16.40;99.90;;;;;;4914501;29;20040;-81
2023/08/02 06:23:20;;;;;;;7.07;3.38;;;16.30;99.90;;;;;;4906097;29;20041;-81
2023/08/02 06:25:46;;;;;;;12.55;3.95;;;16.30;99.90;;;;;;4904947;29;20759;-81
2023/08/02 06:28:12;;;;;;;9.20;3.58;;;16.50;99.90;;;;;;4920136;29;20107;-82
2023/08/02 06:30:37;;;;;;;8.15;3.72;;;16.50;99.90;;;;;;4905070;29;20513;-82
2023/08/02 06:33:04;;;;;;;7.80;3.60;;;16.60;99.90;;;;;;4894662;29;20063;-82
2023/08/02 06:35:32;;;;;;;8.75;3.10;;;16.80;99.90;;;;;;4909737;29;20114;-81
2023/08/02 06:38:02;;;;;;;7.22;3.55;;;16.60;99.90;;;;;;4896577;29;20159;-83
2023/08/02 06:40:33;;;;;;;7.68;3.58;;;16.70;99.90;;;;;;4904930;29;20063;-82
2023/08/02 06:42:59;;;;;;;8.32;3.47;;;16.60;99.90;;;;;;4897897;29;20431;-82
2023/08/02 06:45:24;;;;;;;7.38;4.00;;;16.80;99.90;;;;;;4916050;29;20050;-83
2023/08/02 06:47:50;;;;;;;11.88;3.65;;;16.60;99.90;;;;;;4925607;29;20048;-81
2023/08/02 06:50:16;;;;;;;9.90;3.30;;;16.50;99.90;;;;;;4904493;29;20055;-81
2023/08/02 06:52:41;;;;;;;6.25;3.63;;;16.40;99.90;;;;;;4914933;29;20071;-82
2023/08/02 06:55:07;;;;;;;8.05;3.53;;;16.40;99.90;;;;;;4908904;29;20036;-81
2023/08/02 06:57:33;;;;;;;11.05;3.30;;;16.30;99.90;;;;;;4896696;29;20040;-83
2023/08/02 06:59:58;;;;;;;10.18;3.72;;;16.20;99.90;;;;;;4920403;29;20040;-81
2023/08/02 07:02:24;;;;;;;10.70;3.92;;;16.10;99.90;;;;;;4893173;29;20055;-82
2023/08/02 07:04:49;;;;;;;6.63;2.88;;;16.50;99.90;;;;;;4911669;29;20062;-81
2023/08/02 07:07:15;;;;;;;7.70;3.40;;;16.10;99.90;;;;;;4891916;29;20176;-83
2023/08/02 07:09:46;;;;;;;9.27;3.90;;;16.10;99.90;;;;;;4894783;29;20036;-82
2023/08/02 07:12:11;;;;;;;9.07;3.25;;;16.00;99.90;;;;;;4904656;29;20040;-81
2023/08/02 07:14:39;;;;;;;6.82;3.33;;;16.00;99.90;;;;;;4917196;29;20099;-82
2023/08/02 07:17:05;;;;;;;6.38;3.10;;;16.00;99.90;;;;;;4893022;29;20040;-82
2023/08/02 07:19:31;;;;;;;6.60;3.95;;;16.10;99.90;;;;;;4928339;29;20040;-82
2023/08/02 07:21:56;;;;;;;9.52;2.95;;;16.10;99.90;;;;;;4909161;29;20122;-82
2023/08/02 07:24:22;;;;;;;8.35;2.75;;;16.60;99.90;;;;;;4906844;29;20832;-81
2023/08/02 07:26:53;;;;;;;8.63;3.25;;;16.50;99.90;;;;;;4891973;29;20047;-82
2023/08/02 07:29:19;;;;;;;7.60;3.42;;;16.30;99.90;;;;;;4904269;29;20426;-81
2023/08/02 07:31:44;;;;;;;6.22;3.60;;;16.10;99.90;;;;;;4904575;29;20040;-82
2023/08/02 07:34:10;;;;;;;9.20;3.58;;;16.00;99.90;;;;;;4872788;29;20047;-82
2023/08/02 07:36:35;;;;;;;7.55;2.80;;;16.20;99.90;;;;;;4886530;29;20112;-80
2023/08/02 07:39:03;;;;;;;5.60;2.80;;;16.20;99.90;;;;;;4874699;29;20045;-81
2023/08/02 07:41:29;;;;;;;12.25;4.25;;;16.10;99.90;;;;;;4884941;29;20073;-81
2023/08/02 07:43:55;;;;;;;7.05;3.38;;;16.20;99.90;;;;;;4874207;29;20112;-81
2023/08/02 07:46:22;;;;;;;7.47;3.47;;;16.10;99.90;;;;;;4884017;29;20099;-81
2023/08/02 07:48:50;;;;;;;10.95;3.92;;;16.10;99.90;;;;;;4907601;29;20068;-81
2023/08/02 07:51:16;;;;;;;10.18;3.30;;;16.10;99.90;;;;;;4887416;29;20055;-82
2023/08/02 07:53:41;;;;;;;8.85;4.03;;;16.70;99.90;;;;;;4872597;29;20064;-81
2023/08/02 07:56:07;;;;;;;9.95;4.82;;;16.00;99.90;;;;;;4873039;29;20068;-82
2023/08/02 07:58:33;;;;;;;9.60;3.50;;;16.00;99.90;;;;;;4884646;29;20108;-83
2023/08/02 08:01:09;;;;;;;9.18;4.28;;;16.00;99.90;;;;;;4879263;29;20049;-83
2023/08/02 08:03:36;;;;;;;9.52;4.45;;;15.90;99.90;;;;;;4893060;29;20098;-84
2023/08/02 08:06:13;;;;;;;9.07;3.63;;;15.90;99.90;;;;;;4891268;29;20047;-83
2023/08/02 08:08:39;;;;;;;7.03;3.50;;;15.80;99.90;;;;;;4907337;29;20040;-84
2023/08/02 08:11:05;;;;;;;11.35;3.85;;;15.80;99.90;;;;;;4873715;29;20020;-83
2023/08/02 08:13:31;;;;;;;7.75;3.90;;;15.80;99.90;;;;;;4888046;29;20120;-82
2023/08/02 08:15:57;;;;;;;8.85;4.15;;;15.70;99.90;;;;;;4891740;29;20045;-83
2023/08/02 08:18:22;;;;;;;11.77;5.13;;;15.70;99.90;;;;;;4892479;29;20040;-82
2023/08/02 08:20:49;;;;;;;12.02;4.25;;;15.70;99.90;;;;;;4890179;29;20028;-82
2023/08/02 08:23:19;;;;;;;9.00;5.05;;;15.60;99.90;;;;;;4882394;29;20048;-84
2023/08/02 08:25:49;;;;;;;13.48;4.82;;;15.70;99.90;;;;;;4866948;29;20048;-83
2023/08/02 08:28:36;;;;;;;13.27;4.53;;;15.60;99.90;;;;;;4894071;29;20059;-82
2023/08/02 08:31:03;;;;;;;9.15;4.38;;;15.50;99.90;;;;;;4883485;29;20044;-82
2023/08/02 08:33:29;;;;;;;8.20;4.53;;;15.90;99.90;;;;;;4911266;29;20071;-83
2023/08/02 08:35:55;;;;;;;9.63;4.13;;;15.40;99.90;;;;;;4893897;29;20131;-83
2023/08/02 08:38:21;;;;;;;12.05;4.40;;;15.80;99.90;;;;;;4898590;29;21051;-83
2023/08/02 08:40:51;;;;;;;10.35;5.57;;;15.90;99.90;;;;;;4910998;29;20060;-82
2023/08/02 08:43:17;;;;;;;7.90;4.00;;;15.50;99.90;;;;;;4880516;29;20096;-82
2023/08/02 08:45:44;;;;;;;5.47;3.63;;;15.50;99.90;;;;;;4883633;29;20041;-82
2023/08/02 08:48:10;;;;;;;7.68;3.78;;;16.10;99.90;;;;;;4909509;29;20095;-83
2023/08/02 08:50:39;;;;;;;9.13;4.07;;;15.40;99.90;;;;;;4911621;29;20101;-83
2023/08/02 08:53:08;;;;;;;10.60;3.95;;;15.90;99.90;;;;;;4894393;29;20056;-82
2023/08/02 08:55:35;;;;;;;7.20;4.28;;;15.60;99.90;;;;;;4889819;29;20751;-83
2023/08/02 08:58:01;;;;;;;10.57;4.35;;;15.60;99.90;;;;;;4876259;29;20040;-81
2023/08/02 09:00:26;;;;;;;11.07;5.22;;;15.70;99.90;;;;;;4874868;29;20045;-82
2023/08/02 09:02:53;;;;;;;10.60;4.63;;;15.70;99.90;;;;;;4892335;29;20551;-83
2023/08/02 09:05:19;;;;;;;10.00;5.32;;;16.10;99.90;;;;;;4879404;29;20063;-82
2023/08/02 09:07:45;;;;;;;10.25;4.47;;;15.80;99.90;;;;;;4890977;29;20044;-82
2023/08/02 09:10:10;;;;;;;11.27;4.85;;;15.80;99.90;;;;;;4913046;29;20036;-83
2023/08/02 09:12:44;;;;;;;10.93;4.60;;;15.80;99.90;;;;;;4898000;29;20088;-82
2023/08/02 09:15:13;;;;;;;9.57;4.80;;;15.80;99.90;;;;;;4910539;29;20032;-81
2023/08/02 09:17:46;;;;;;;7.53;4.32;;;15.80;99.90;;;;;;4927352;23;20142;-66
2023/08/02 09:20:13;;;;;;;8.02;4.55;;;15.70;99.90;;;;;;4950928;28;20051;-67
2023/08/02 09:22:38;;;;;;;7.05;4.55;;;15.70;99.90;;;;;;4949571;28;20110;-67
2023/08/02 09:25:07;;;;;;;10.57;4.57;;;15.80;99.90;;;;;;4948461;28;20066;-66
2023/08/02 09:27:34;;;;;;;10.32;5.28;;;15.80;99.90;;;;;;4942589;28;20054;-67
2023/08/02 09:29:59;;;;;;;7.22;4.18;;;15.80;99.90;;;;;;4948210;28;20061;-67
2023/08/02 09:32:26;;;;;;;9.55;5.07;;;15.90;99.90;;;;;;4948822;28;20047;-66
2023/08/02 09:34:58;;;;;;;6.47;4.50;;;16.00;99.90;;;;;;4946601;28;20057;-67
2023/08/02 09:37:33;;;;;;;8.27;4.63;;;16.20;99.90;;;;;;4949496;28;20125;-67
2023/08/02 09:39:59;;;;;;;6.32;4.30;;;16.00;99.90;;;;;;4946896;28;20047;-67
2023/08/02 09:42:26;;;;;;;5.65;3.90;;;16.10;99.90;;;;;;4947747;28;20054;-67
2023/08/02 09:44:55;;;;;;;5.75;4.68;;;16.10;99.90;;;;;;4940871;28;20072;-67
2023/08/02 09:47:21;;;;;;;8.13;4.68;;;16.10;99.90;;;;;;4946929;28;20035;-67
2023/08/02 09:50:06;;;;;;;5.40;3.75;;;16.00;99.90;;;;;;4959616;28;20560;-67
2023/08/02 09:52:32;;;;;;;6.20;4.45;;;16.00;99.90;;;;;;4948496;29;20066;-68
2023/08/02 09:54:58;;;;;;;5.70;3.80;;;16.00;99.90;;;;;;4948393;28;20130;-67
2023/08/02 09:57:26;;;;;;;6.72;4.50;;;16.00;99.90;;;;;;4947474;28;20081;-67
2023/08/02 09:59:54;;;;;;;8.00;3.60;;;16.10;99.90;;;;;;4945115;28;20081;-67
2023/08/02 10:02:24;;;;;;;5.45;3.97;;;16.10;99.90;;;;;;4950422;28;20036;-67
2023/08/02 10:04:54;;;;;;;5.30;3.83;;;16.10;99.90;;;;;;4948104;28;20055;-67
2023/08/02 10:07:20;;;;;;;6.97;3.45;;;16.20;99.90;;;;;;4943155;28;20043;-67
2023/08/02 10:09:48;;;;;;;3.85;3.40;;;16.30;99.90;;;;;;4947757;28;20066;-67
2023/08/02 10:12:16;;;;;;;3.80;2.67;;;16.30;99.90;;;;;;4945785;28;20445;-67
2023/08/02 10:14:42;;;;;;;3.22;2.92;;;16.30;99.90;;;;;;4944778;28;20114;-67
2023/08/02 10:17:10;;;;;;;3.03;2.50;;;16.30;99.90;;;;;;4957000;28;20129;-67
2023/08/02 10:19:35;;;;;;;3.88;2.50;;;16.20;99.90;;;;;;4942076;28;20042;-67
2023/08/02 10:22:04;;;;;;;3.75;2.25;;;16.20;99.90;;;;;;4965804;28;20065;-67
2023/08/02 10:24:29;;;;;;;3.10;2.78;;;16.30;99.90;;;;;;4970579;28;20035;-66
2023/08/02 10:27:06;;;;;;;2.00;1.85;;;16.30;99.90;;;;;;4964815;28;20045;-67
2023/08/02 10:29:33;;;;;;;4.93;1.98;;;16.40;99.90;;;;;;4967453;28;20153;-67
2023/08/02 10:32:11;;;;;;;1.98;1.70;;;16.40;99.90;;;;;;4947460;28;20489;-67
2023/08/02 10:34:37;;;;;;;1.70;1.33;;;16.40;99.90;;;;;;4949323;28;20043;-67
2023/08/02 10:37:04;;;;;;;1.52;1.20;;;16.40;99.90;;;;;;4949856;28;20491;-67
2023/08/02 10:39:45;;;;;;;2.55;1.40;;;16.50;99.90;;;;;;4967468;28;20419;-67
2023/08/02 10:42:11;;;;;;;2.17;1.15;;;16.50;99.90;;;;;;4965144;28;20055;-66
2023/08/02 10:44:36;;;;;;;2.42;1.52;;;16.50;99.90;;;;;;4966063;28;20042;-67
2023/08/02 10:47:23;;;;;;;1.98;1.45;;;16.60;99.90;;;;;;4952503;28;20956;-67
2023/08/02 10:49:49;;;;;;;1.80;1.23;;;16.60;99.90;;;;;;4967068;28;20031;-67
2023/08/02 10:53:01;;;;;;;1.60;1.20;;;16.60;99.90;;;;;;4932652;28;20495;-67
2023/08/02 10:55:27;;;;;;;0.93;0.90;;;16.70;99.90;;;;;;4892429;29;20076;-67
2023/08/02 10:57:55;;;;;;;1.42;1.13;;;16.80;99.90;;;;;;4960373;28;20055;-67
2023/08/02 11:00:26;;;;;;;1.20;0.95;;;16.90;99.90;;;;;;4944887;28;20536;-67
2023/08/02 11:02:52;;;;;;;1.38;1.20;;;17.00;99.90;;;;;;4966527;28;20169;-67
2023/08/02 11:05:47;;;;;;;1.52;0.70;;;17.00;99.90;;;;;;4966702;28;20046;-67
2023/08/02 11:08:13;;;;;;;1.33;0.77;;;17.10;99.90;;;;;;4958779;28;20062;-67
2023/08/02 11:10:53;;;;;;;1.17;0.60;;;17.10;99.90;;;;;;4967059;28;20404;-67
2023/08/02 11:13:20;;;;;;;0.68;0.55;;;17.10;99.90;;;;;;4969295;28;20468;-67
2023/08/02 11:15:45;;;;;;;0.80;0.57;;;17.10;99.90;;;;;;4952693;28;20126;-67
2023/08/02 11:18:12;;;;;;;1.27;0.52;;;17.10;99.90;;;;;;4950837;28;20479;-67
2023/08/02 11:20:38;;;;;;;2.17;0.45;;;17.20;99.90;;;;;;4947748;28;20560;-67
2023/08/02 11:23:24;;;;;;;1.08;0.50;;;17.20;99.90;;;;;;4947105;28;20129;-68
2023/08/02 11:25:51;;;;;;;2.08;0.50;;;17.30;99.90;;;;;;4930795;28;20131;-67
2023/08/02 11:28:17;;;;;;;1.80;0.68;;;17.30;99.90;;;;;;4951108;28;20117;-67
2023/08/02 11:30:48;;;;;;;2.85;0.55;;;17.40;99.90;;;;;;4945573;28;20038;-67
2023/08/02 11:33:14;;;;;;;9.80;1.30;;;17.50;99.90;;;;;;4970112;28;20039;-67
2023/08/02 11:35:40;;;;;;;2.30;0.50;;;17.60;99.90;;;;;;4948544;28;20042;-67
2023/08/02 11:38:11;;;;;;;2.25;0.50;;;17.70;99.90;;;;;;4966285;28;20101;-67
2023/08/02 11:40:37;;;;;;;0.77;0.57;;;17.70;99.90;;;;;;4962395;28;20043;-67
2023/08/02 11:43:03;;;;;;;7.88;1.50;;;17.90;99.90;;;;;;4945089;28;20383;-67
2023/08/02 11:45:33;;;;;;;0.55;0.45;;;18.00;99.90;;;;;;4951504;28;20390;-67
2023/08/02 11:47:59;;;;;;;0.80;0.63;;;18.20;99.90;;;;;;4968136;28;20050;-67
2023/08/02 11:50:27;;;;;;;0.90;0.75;;;18.50;99.90;;;;;;4946699;28;20354;-67
2023/08/02 11:53:02;;;;;;;1.33;0.88;;;18.70;99.90;;;;;;4966058;28;20398;-67
2023/08/02 11:55:28;;;;;;;0.80;0.80;;;18.80;99.90;;;;;;4947286;28;20042;-67
2023/08/02 11:57:53;;;;;;;0.90;0.80;;;18.70;99.90;;;;;;4932474;28;20480;-67
2023/08/02 12:00:19;;;;;;;0.80;0.80;;;18.60;99.90;;;;;;4965052;28;20043;-67
2023/08/02 12:02:46;;;;;;;1.60;0.70;;;18.70;99.90;;;;;;4965546;28;20049;-67
2023/08/02 12:05:21;;;;;;;0.93;0.73;;;18.70;99.90;;;;;;4945882;28;20046;-67
2023/08/02 12:07:48;;;;;;;2.20;0.90;;;18.70;99.90;;;;;;4950079;28;20046;-67
2023/08/02 12:10:28;;;;;;;1.10;1.10;;;18.60;99.90;;;;;;4942201;28;20766;-67
2023/08/02 12:12:54;;;;;;;1.55;1.45;;;18.60;99.90;;;;;;4960460;28;20118;-67
2023/08/02 12:15:20;;;;;;;2.95;1.20;;;18.70;99.90;;;;;;4937494;28;20045;-67
2023/08/02 12:17:45;;;;;;;2.08;1.88;;;18.70;99.90;;;;;;4951353;28;20104;-67
2023/08/02 12:20:31;;;;;;;4.55;1.70;;;18.60;99.90;;;;;;4964785;28;20166;-67
2023/08/02 12:22:56;;;;;;;1.88;1.63;;;18.60;99.90;;;;;;4966694;28;20076;-67
2023/08/02 12:25:22;;;;;;;2.30;2.03;;;18.60;99.90;;;;;;4964474;28;20039;-67
2023/08/02 12:28:07;;;;;;;2.22;1.75;;;18.60;99.90;;;;;;4946394;28;20038;-67
2023/08/02 12:30:33;;;;;;;2.03;1.93;;;18.80;99.90;;;;;;4946577;28;20485;-67
2023/08/02 12:32:58;;;;;;;2.58;1.88;;;18.90;99.90;;;;;;4945799;28;20302;-67
2023/08/02 12:35:25;;;;;;;1.60;1.50;;;19.20;99.90;;;;;;4960437;28;20043;-67
2023/08/02 12:37:51;;;;;;;2.88;1.55;;;19.50;99.90;;;;;;4963276;28;20117;-67
2023/08/02 12:40:17;;;;;;;3.63;1.25;;;19.80;99.90;;;;;;4964092;28;20646;-67
2023/08/02 12:42:42;;;;;;;1.75;1.25;;;20.10;99.90;;;;;;4945092;28;20043;-67
2023/08/02 12:45:08;;;;;;;3.50;1.33;;;20.40;99.90;;;;;;4942643;28;20049;-67